createdAt,value
2022-08-03T00:02:03.000Z,289.02
2022-08-03T00:03:32.000Z,288.96
2022-08-03T00:05:38.000Z,289.02
2022-08-03T00:07:29.000Z,289.02
2022-08-03T00:09:35.000Z,288.84
2022-08-03T00:12:26.000Z,288.84
2022-08-03T00:13:53.000Z,288.9
2022-08-03T00:15:59.000Z,288.96
2022-08-03T00:17:25.000Z,288.84
2022-08-03T00:19:31.000Z,288.84
2022-08-03T00:20:58.000Z,288.77
2022-08-03T00:23:04.000Z,288.65
2022-08-03T00:24:30.000Z,288.71
2022-08-03T00:26:37.000Z,288.65
2022-08-03T00:28:03.000Z,288.65
2022-08-03T00:30:09.000Z,288.77
2022-08-03T00:31:36.000Z,288.84
2022-08-03T00:33:57.000Z,288.84
2022-08-03T00:35:28.000Z,288.84
2022-08-03T00:37:55.000Z,288.9
2022-08-03T00:39:21.000Z,288.84
2022-08-03T00:41:27.000Z,288.77
2022-08-03T00:42:54.000Z,288.71
2022-08-03T00:45:00.000Z,288.65
2022-08-03T00:46:27.000Z,288.71
2022-08-03T00:48:33.000Z,288.65
2022-08-03T00:51:24.000Z,288.65
2022-08-03T00:52:51.000Z,288.65
2022-08-03T00:54:57.000Z,288.4
2022-08-03T00:56:23.000Z,288.27
2022-08-03T00:58:29.000Z,288.27
2022-08-03T00:59:56.000Z,288.27
2022-08-03T01:02:02.000Z,288.27
2022-08-03T01:03:29.000Z,288.34
2022-08-03T01:05:35.000Z,288.34
2022-08-03T01:07:01.000Z,288.4
2022-08-03T01:09:07.000Z,288.46
2022-08-03T01:10:34.000Z,288.4
2022-08-03T01:12:40.000Z,288.4
2022-08-03T01:14:07.000Z,288.34
2022-08-03T01:16:23.000Z,288.21
2022-08-03T01:18:01.000Z,288.27
2022-08-03T01:20:07.000Z,288.15
2022-08-03T01:21:33.000Z,288.21
2022-08-03T01:23:39.000Z,288.15
2022-08-03T01:25:06.000Z,288.15
2022-08-03T01:27:12.000Z,288.15
2022-08-03T01:30:03.000Z,288.21
2022-08-03T01:31:30.000Z,288.15
2022-08-03T01:33:36.000Z,288.09
2022-08-03T01:35:03.000Z,288.02
2022-08-03T01:37:09.000Z,287.96
2022-08-03T01:38:35.000Z,287.96
2022-08-03T01:40:41.000Z,287.96
2022-08-03T01:42:08.000Z,288.02
2022-08-03T01:44:14.000Z,287.84
2022-08-03T01:45:55.000Z,287.96
2022-08-03T01:48:01.000Z,287.9
2022-08-03T01:49:27.000Z,287.96
2022-08-03T01:51:34.000Z,287.9
2022-08-03T01:53:29.000Z,287.96
2022-08-03T01:55:35.000Z,288.02
2022-08-03T01:57:01.000Z,288.02
2022-08-03T01:59:07.000Z,287.9
2022-08-03T02:00:35.000Z,287.84
2022-08-03T02:02:41.000Z,287.77
2022-08-03T02:04:08.000Z,287.71
2022-08-03T02:06:14.000Z,287.71
2022-08-03T02:09:50.000Z,287.77
2022-08-03T02:11:16.000Z,287.77
2022-08-03T02:13:22.000Z,287.65
2022-08-03T02:14:49.000Z,287.59
2022-08-03T02:16:55.000Z,287.71
2022-08-03T02:18:21.000Z,287.71
2022-08-03T02:20:27.000Z,287.65
2022-08-03T02:21:54.000Z,287.52
2022-08-03T02:24:05.000Z,287.59
2022-08-03T02:25:32.000Z,287.59
2022-08-03T02:27:38.000Z,287.52
2022-08-03T02:29:08.000Z,287.52
2022-08-03T02:31:14.000Z,287.65
2022-08-03T02:32:40.000Z,287.71
2022-08-03T02:34:47.000Z,287.65
2022-08-03T02:36:13.000Z,287.52
2022-08-03T02:38:19.000Z,287.52
2022-08-03T02:39:46.000Z,287.52
2022-08-03T02:41:52.000Z,287.52
2022-08-03T02:43:18.000Z,287.59
2022-08-03T02:45:24.000Z,287.52
2022-08-03T02:48:16.000Z,287.52
2022-08-03T02:49:42.000Z,287.46
2022-08-03T02:51:55.000Z,287.46
2022-08-03T02:53:22.000Z,287.27
2022-08-03T02:55:28.000Z,287.27
2022-08-03T02:56:54.000Z,287.27
2022-08-03T02:59:00.000Z,287.34
2022-08-03T03:00:27.000Z,287.34
2022-08-03T03:02:33.000Z,287.21
2022-08-03T03:03:59.000Z,287.15
2022-08-03T03:06:06.000Z,287.15
2022-08-03T03:07:32.000Z,287.21
2022-08-03T03:09:55.000Z,287.15
2022-08-03T03:11:22.000Z,287.21
2022-08-03T03:13:28.000Z,287.21
2022-08-03T03:14:54.000Z,287.09
2022-08-03T03:17:00.000Z,287.09
2022-08-03T03:18:27.000Z,287.15
2022-08-03T03:20:33.000Z,287.09
2022-08-03T03:22:00.000Z,286.96
2022-08-03T03:24:06.000Z,287.09
2022-08-03T03:26:57.000Z,286.9
2022-08-03T03:28:23.000Z,286.96
2022-08-03T03:30:29.000Z,286.96
2022-08-03T03:31:56.000Z,287.02
2022-08-03T03:34:05.000Z,286.84
2022-08-03T03:35:31.000Z,286.9
2022-08-03T03:37:43.000Z,286.84
2022-08-03T03:39:09.000Z,286.9
2022-08-03T03:41:20.000Z,286.9
2022-08-03T03:42:46.000Z,286.77
2022-08-03T03:44:52.000Z,286.9
2022-08-03T03:46:19.000Z,286.71
2022-08-03T03:48:25.000Z,286.65
2022-08-03T03:49:51.000Z,286.71
2022-08-03T03:51:57.000Z,286.84
2022-08-03T03:53:24.000Z,286.9
2022-08-03T03:55:30.000Z,286.96
2022-08-03T03:56:57.000Z,286.96
2022-08-03T03:59:03.000Z,286.96
2022-08-03T04:00:29.000Z,286.77
2022-08-03T04:02:36.000Z,286.77
2022-08-03T04:05:27.000Z,286.77
2022-08-03T04:06:54.000Z,286.84
2022-08-03T04:09:00.000Z,286.65
2022-08-03T04:10:26.000Z,286.71
2022-08-03T04:12:32.000Z,286.71
2022-08-03T04:13:59.000Z,286.71
2022-08-03T04:16:06.000Z,286.65
2022-08-03T04:17:32.000Z,286.71
2022-08-03T04:19:38.000Z,286.65
2022-08-03T04:21:05.000Z,286.52
2022-08-03T04:23:11.000Z,286.65
2022-08-03T04:24:40.000Z,286.71
2022-08-03T04:26:46.000Z,286.84
2022-08-03T04:28:17.000Z,286.84
2022-08-03T04:30:35.000Z,286.77
2022-08-03T04:32:02.000Z,286.77
2022-08-03T04:34:08.000Z,286.71
2022-08-03T04:35:34.000Z,286.71
2022-08-03T04:38:07.000Z,286.84
2022-08-03T04:39:33.000Z,286.9
2022-08-03T04:41:39.000Z,286.9
2022-08-03T04:44:57.000Z,287.02
2022-08-03T04:46:26.000Z,287.02
2022-08-03T04:48:32.000Z,286.96
2022-08-03T04:49:59.000Z,287.02
2022-08-03T04:52:05.000Z,287.09
2022-08-03T04:53:31.000Z,287.46
2022-08-03T04:55:37.000Z,287.9
2022-08-03T04:57:04.000Z,287.84
2022-08-03T04:59:10.000Z,287.65
2022-08-03T05:00:36.000Z,287.52
2022-08-03T05:02:42.000Z,287.34
2022-08-03T05:04:09.000Z,287.4
2022-08-03T05:06:15.000Z,287.52
2022-08-03T05:07:41.000Z,287.71
2022-08-03T05:09:48.000Z,287.84
2022-08-03T05:11:26.000Z,287.96
2022-08-03T05:13:32.000Z,288.02
2022-08-03T05:14:59.000Z,288.09
2022-08-03T05:17:05.000Z,288.15
2022-08-03T05:18:31.000Z,288.21
2022-08-03T05:20:37.000Z,288.34
2022-08-03T05:23:29.000Z,288.4
2022-08-03T05:24:55.000Z,288.46
2022-08-03T05:27:01.000Z,288.59
2022-08-03T05:28:28.000Z,288.59
2022-08-03T05:30:34.000Z,288.77
2022-08-03T05:32:00.000Z,288.77
2022-08-03T05:34:12.000Z,288.84
2022-08-03T05:35:38.000Z,289.02
2022-08-03T05:38:07.000Z,289.02
2022-08-03T05:39:35.000Z,289.09
2022-08-03T05:41:41.000Z,289.21
2022-08-03T05:43:07.000Z,289.27
2022-08-03T05:45:13.000Z,289.4
2022-08-03T05:46:40.000Z,289.46
2022-08-03T05:48:46.000Z,289.52
2022-08-03T05:50:12.000Z,289.52
2022-08-03T05:52:19.000Z,289.52
2022-08-03T05:53:46.000Z,289.59
2022-08-03T05:55:52.000Z,289.65
2022-08-03T05:57:23.000Z,289.65
2022-08-03T05:59:29.000Z,289.77
2022-08-03T06:02:27.000Z,289.96
2022-08-03T06:03:54.000Z,289.9
2022-08-03T06:06:00.000Z,289.96
2022-08-03T06:07:26.000Z,290.02
2022-08-03T06:09:33.000Z,290.15
2022-08-03T06:12:02.000Z,290.21
2022-08-03T06:14:08.000Z,290.27
2022-08-03T06:15:34.000Z,290.4
2022-08-03T06:17:40.000Z,290.59
2022-08-03T06:19:07.000Z,290.65
2022-08-03T06:21:13.000Z,290.77
2022-08-03T06:22:40.000Z,290.9
2022-08-03T06:24:55.000Z,291.09
2022-08-03T06:26:21.000Z,291.02
2022-08-03T06:28:27.000Z,291.02
2022-08-03T06:30:18.000Z,291.15
2022-08-03T06:32:25.000Z,291.27
2022-08-03T06:33:52.000Z,291.4
2022-08-03T06:36:38.000Z,291.59
2022-08-03T06:38:05.000Z,291.65
2022-08-03T06:40:11.000Z,291.77
2022-08-03T06:43:03.000Z,292.02
2022-08-03T06:44:35.000Z,292.15
2022-08-03T06:46:41.000Z,292.27
2022-08-03T06:48:07.000Z,292.4
2022-08-03T06:50:14.000Z,292.46
2022-08-03T06:51:44.000Z,292.59
2022-08-03T06:54:10.000Z,292.59
2022-08-03T06:55:37.000Z,292.71
2022-08-03T06:57:46.000Z,292.9
2022-08-03T06:59:13.000Z,293.02
2022-08-03T07:02:16.000Z,293.15
2022-08-03T07:03:43.000Z,293.21
2022-08-03T07:05:56.000Z,293.27
2022-08-03T07:07:23.000Z,293.34
2022-08-03T07:09:29.000Z,293.46
2022-08-03T07:10:56.000Z,293.59
2022-08-03T07:13:02.000Z,293.65
2022-08-03T07:14:28.000Z,293.84
2022-08-03T07:16:35.000Z,294.15
2022-08-03T07:18:01.000Z,294.15
2022-08-03T07:20:07.000Z,294.21
2022-08-03T07:22:59.000Z,294.4
2022-08-03T07:24:25.000Z,294.4
2022-08-03T07:26:32.000Z,294.59
2022-08-03T07:27:59.000Z,294.65
2022-08-03T07:30:05.000Z,294.9
2022-08-03T07:31:31.000Z,295.21
2022-08-03T07:33:38.000Z,295.21
2022-08-03T07:35:05.000Z,295.27
2022-08-03T07:37:28.000Z,295.34
2022-08-03T07:38:55.000Z,295.46
2022-08-03T07:41:01.000Z,295.59
2022-08-03T07:42:27.000Z,295.59
2022-08-03T07:44:34.000Z,295.71
2022-08-03T07:46:00.000Z,295.71
2022-08-03T07:48:06.000Z,295.84
2022-08-03T07:49:37.000Z,296.02
2022-08-03T07:51:43.000Z,296.09
2022-08-03T07:53:09.000Z,296.15
2022-08-03T07:55:16.000Z,296.34
2022-08-03T07:56:42.000Z,296.46
2022-08-03T07:58:48.000Z,296.59
2022-08-03T08:01:40.000Z,296.77
2022-08-03T08:03:06.000Z,296.96
2022-08-03T08:05:13.000Z,297.15
2022-08-03T08:06:39.000Z,297.34
2022-08-03T08:08:45.000Z,297.34
2022-08-03T08:10:12.000Z,297.4
2022-08-03T08:12:18.000Z,297.52
2022-08-03T08:13:45.000Z,297.59
2022-08-03T08:15:51.000Z,297.77
2022-08-03T08:17:18.000Z,297.77
2022-08-03T08:19:24.000Z,297.9
2022-08-03T08:20:55.000Z,297.96
2022-08-03T08:23:01.000Z,298.15
2022-08-03T08:24:43.000Z,298.27
2022-08-03T08:26:50.000Z,298.4
2022-08-03T08:28:17.000Z,298.46
2022-08-03T08:30:37.000Z,298.65
2022-08-03T08:32:03.000Z,298.96
2022-08-03T08:34:09.000Z,299.02
2022-08-03T08:35:36.000Z,299.09
2022-08-03T08:37:43.000Z,299.15
2022-08-03T08:40:40.000Z,299.34
2022-08-03T08:42:07.000Z,299.46
2022-08-03T08:44:13.000Z,299.71
2022-08-03T08:45:40.000Z,299.71
2022-08-03T08:47:46.000Z,299.71
2022-08-03T08:49:16.000Z,299.77
2022-08-03T08:51:22.000Z,299.84
2022-08-03T08:53:24.000Z,300.09
2022-08-03T08:55:31.000Z,300.21
2022-08-03T08:59:37.000Z,300.52
2022-08-03T09:01:14.000Z,300.59
2022-08-03T09:03:20.000Z,300.77
2022-08-03T09:04:55.000Z,300.65
2022-08-03T09:07:01.000Z,300.65
2022-08-03T09:08:53.000Z,300.77
2022-08-03T09:11:00.000Z,300.84
2022-08-03T09:12:26.000Z,300.96
2022-08-03T09:14:46.000Z,301.15
2022-08-03T09:16:39.000Z,301.15
2022-08-03T09:18:45.000Z,301.4
2022-08-03T09:21:36.000Z,301.15
2022-08-03T09:23:03.000Z,301.15
2022-08-03T09:25:55.000Z,301.21
2022-08-03T09:27:24.000Z,301.27
2022-08-03T09:29:30.000Z,301.52
2022-08-03T09:30:57.000Z,301.52
2022-08-03T09:33:03.000Z,301.46
2022-08-03T09:34:29.000Z,301.59
2022-08-03T09:36:36.000Z,301.77
2022-08-03T09:38:03.000Z,301.77
2022-08-03T09:40:18.000Z,301.9
2022-08-03T09:41:44.000Z,301.84
2022-08-03T09:43:51.000Z,301.9
2022-08-03T09:45:17.000Z,302.15
2022-08-03T09:47:23.000Z,302.21
2022-08-03T09:48:53.000Z,302.15
2022-08-03T09:50:59.000Z,302.21
2022-08-03T09:53:26.000Z,302.21
2022-08-03T09:55:33.000Z,302.21
2022-08-03T09:58:01.000Z,302.27
2022-08-03T10:00:07.000Z,302.34
2022-08-03T10:02:58.000Z,302.27
2022-08-03T10:04:25.000Z,302.34
2022-08-03T10:06:31.000Z,302.46
2022-08-03T10:07:57.000Z,302.52
2022-08-03T10:10:04.000Z,302.59
2022-08-03T10:11:56.000Z,302.71
2022-08-03T10:14:02.000Z,302.96
2022-08-03T10:15:29.000Z,302.77
2022-08-03T10:18:29.000Z,302.59
2022-08-03T10:19:56.000Z,302.84
2022-08-03T10:22:02.000Z,303.02
2022-08-03T10:23:28.000Z,303.02
2022-08-03T10:25:38.000Z,303.15
2022-08-03T10:27:04.000Z,303.21
2022-08-03T10:29:11.000Z,303.34
2022-08-03T10:30:37.000Z,303.21
2022-08-03T10:32:43.000Z,303.4
2022-08-03T10:34:10.000Z,303.4
2022-08-03T10:36:16.000Z,303.46
2022-08-03T10:37:43.000Z,303.59
2022-08-03T10:40:01.000Z,303.34
2022-08-03T10:42:52.000Z,303.52
2022-08-03T10:44:19.000Z,303.52
2022-08-03T10:46:25.000Z,303.65
2022-08-03T10:47:51.000Z,303.84
2022-08-03T10:49:57.000Z,303.52
2022-08-03T10:51:24.000Z,303.59
2022-08-03T10:53:30.000Z,303.71
2022-08-03T10:54:59.000Z,303.84
2022-08-03T10:57:07.000Z,303.96
2022-08-03T10:58:38.000Z,303.77
2022-08-03T11:01:01.000Z,303.96
2022-08-03T11:02:28.000Z,303.96
2022-08-03T11:04:34.000Z,304.09
2022-08-03T11:06:01.000Z,304.09
2022-08-03T11:08:07.000Z,303.77
2022-08-03T11:09:33.000Z,303.9
2022-08-03T11:11:40.000Z,304.27
2022-08-03T11:13:06.000Z,304.4
2022-08-03T11:15:12.000Z,304.34
2022-08-03T11:16:39.000Z,304.4
2022-08-03T11:18:45.000Z,304.52
2022-08-03T11:21:37.000Z,304.59
2022-08-03T11:23:03.000Z,304.4
2022-08-03T11:25:09.000Z,304.27
2022-08-03T11:27:19.000Z,304.65
2022-08-03T11:29:26.000Z,304.96
2022-08-03T11:30:52.000Z,305.02
2022-08-03T11:32:59.000Z,305.02
2022-08-03T11:34:25.000Z,305.02
2022-08-03T11:36:31.000Z,305.09
2022-08-03T11:37:58.000Z,305.02
2022-08-03T11:40:09.000Z,305.15
2022-08-03T11:41:35.000Z,305.27
2022-08-03T11:43:49.000Z,305.27
2022-08-03T11:45:16.000Z,305.27
2022-08-03T11:47:22.000Z,305.4
2022-08-03T11:48:48.000Z,305.46
2022-08-03T11:50:55.000Z,305.27
2022-08-03T11:52:21.000Z,305.27
2022-08-03T11:54:32.000Z,305.34
2022-08-03T11:55:59.000Z,305.46
2022-08-03T11:58:05.000Z,305.65
2022-08-03T12:02:08.000Z,305.84
2022-08-03T12:03:34.000Z,305.65
2022-08-03T12:05:41.000Z,305.46
2022-08-03T12:07:16.000Z,305.59
2022-08-03T12:10:08.000Z,305.59
2022-08-03T12:11:35.000Z,305.84
2022-08-03T12:13:55.000Z,306.02
2022-08-03T12:16:16.000Z,306.09
2022-08-03T12:18:22.000Z,305.46
2022-08-03T12:19:48.000Z,305.21
2022-08-03T12:21:55.000Z,305.09
2022-08-03T12:23:22.000Z,305.34
2022-08-03T12:25:28.000Z,305.71
2022-08-03T12:27:04.000Z,305.71
2022-08-03T12:29:10.000Z,305.34
2022-08-03T12:30:36.000Z,305.71
2022-08-03T12:32:43.000Z,305.77
2022-08-03T12:34:09.000Z,306.02
2022-08-03T12:36:15.000Z,305.71
2022-08-03T12:37:42.000Z,306.09
2022-08-03T12:39:48.000Z,306.21
2022-08-03T12:42:53.000Z,306.34
2022-08-03T12:44:19.000Z,306.52
2022-08-03T12:46:26.000Z,306.34
2022-08-03T12:47:52.000Z,306.34
2022-08-03T12:49:58.000Z,306.02
2022-08-03T12:51:25.000Z,306.09
2022-08-03T12:53:31.000Z,306.27
2022-08-03T12:54:57.000Z,306.52
2022-08-03T12:57:04.000Z,306.71
2022-08-03T12:58:30.000Z,306.77
2022-08-03T13:00:37.000Z,306.71
2022-08-03T13:02:06.000Z,306.59
2022-08-03T13:04:14.000Z,306.09
2022-08-03T13:05:42.000Z,305.9
2022-08-03T13:07:49.000Z,306.15
2022-08-03T13:09:15.000Z,306.52
2022-08-03T13:11:23.000Z,306.65
2022-08-03T13:13:26.000Z,306.71
2022-08-03T13:15:32.000Z,306.84
2022-08-03T13:17:12.000Z,306.96
2022-08-03T13:19:18.000Z,307.15
2022-08-03T13:22:10.000Z,307.34
2022-08-03T13:23:36.000Z,307.4
2022-08-03T13:25:42.000Z,307.27
2022-08-03T13:27:20.000Z,307.34
2022-08-03T13:30:09.000Z,307.46
2022-08-03T13:31:36.000Z,307.4
2022-08-03T13:33:54.000Z,307.59
2022-08-03T13:35:21.000Z,307.59
2022-08-03T13:37:27.000Z,307.59
2022-08-03T13:38:54.000Z,307.15
2022-08-03T13:41:00.000Z,307.15
2022-08-03T13:42:29.000Z,307.15
2022-08-03T13:44:35.000Z,306.71
2022-08-03T13:46:02.000Z,306.52
2022-08-03T13:48:08.000Z,306.65
2022-08-03T13:49:35.000Z,306.9
2022-08-03T13:51:41.000Z,307.09
2022-08-03T13:53:08.000Z,307.46
2022-08-03T13:55:14.000Z,307.4
2022-08-03T13:56:40.000Z,307.46
2022-08-03T13:58:47.000Z,307.52
2022-08-03T14:01:38.000Z,307.84
2022-08-03T14:03:19.000Z,307.71
2022-08-03T14:05:26.000Z,307.4
2022-08-03T14:06:56.000Z,307.34
2022-08-03T14:09:02.000Z,307.77
2022-08-03T14:10:29.000Z,307.65
2022-08-03T14:12:35.000Z,307.71
2022-08-03T14:14:02.000Z,307.9
2022-08-03T14:16:08.000Z,308.02
2022-08-03T14:17:41.000Z,307.65
2022-08-03T14:19:54.000Z,307.71
2022-08-03T14:21:22.000Z,307.77
2022-08-03T14:23:28.000Z,307.84
2022-08-03T14:24:55.000Z,307.71
2022-08-03T14:27:01.000Z,307.65
2022-08-03T14:28:33.000Z,307.77
2022-08-03T14:30:40.000Z,308.09
2022-08-03T14:32:06.000Z,308.21
2022-08-03T14:34:17.000Z,308.09
2022-08-03T14:35:43.000Z,308.09
2022-08-03T14:37:49.000Z,307.65
2022-08-03T14:40:40.000Z,307.9
2022-08-03T14:42:07.000Z,308.02
2022-08-03T14:44:13.000Z,308.21
2022-08-03T14:45:39.000Z,308.34
2022-08-03T14:47:45.000Z,308.15
2022-08-03T14:51:59.000Z,307.4
2022-08-03T14:54:06.000Z,307.65
2022-08-03T14:55:32.000Z,308.02
2022-08-03T14:57:43.000Z,307.84
2022-08-03T14:59:10.000Z,307.9
2022-08-03T15:01:16.000Z,308.02
2022-08-03T15:03:30.000Z,307.71
2022-08-03T15:05:37.000Z,307.77
2022-08-03T15:07:03.000Z,307.52
2022-08-03T15:09:09.000Z,307.96
2022-08-03T15:10:47.000Z,308.15
2022-08-03T15:12:53.000Z,308.27
2022-08-03T15:14:20.000Z,308.34
2022-08-03T15:16:37.000Z,308.21
2022-08-03T15:18:04.000Z,308.21
2022-08-03T15:20:10.000Z,308.4
2022-08-03T15:23:21.000Z,308.46
2022-08-03T15:24:48.000Z,308.65
2022-08-03T15:26:54.000Z,308.65
2022-08-03T15:28:20.000Z,308.59
2022-08-03T15:30:26.000Z,308.46
2022-08-03T15:31:53.000Z,308.46
2022-08-03T15:33:59.000Z,307.96
2022-08-03T15:35:26.000Z,307.77
2022-08-03T15:37:32.000Z,308.21
2022-08-03T15:38:58.000Z,308.27
2022-08-03T15:41:05.000Z,307.96
2022-08-03T15:42:38.000Z,307.65
2022-08-03T15:46:16.000Z,308.34
2022-08-03T15:47:01.000Z,308.21
2022-08-03T15:48:27.000Z,308.46
2022-08-03T15:50:33.000Z,308.52
2022-08-03T15:52:00.000Z,308.77
2022-08-03T15:54:06.000Z,308.65
2022-08-03T15:55:32.000Z,308.59
2022-08-03T15:57:39.000Z,308.59
2022-08-03T16:00:37.000Z,308.4
2022-08-03T16:02:43.000Z,308.52
2022-08-03T16:05:38.000Z,307.96
2022-08-03T16:07:05.000Z,307.84
2022-08-03T16:09:16.000Z,308.4
2022-08-03T16:11:05.000Z,308.52
2022-08-03T16:13:12.000Z,308.59
2022-08-03T16:14:38.000Z,308.46
2022-08-03T16:16:56.000Z,308.52
2022-08-03T16:18:23.000Z,308.52
2022-08-03T16:20:29.000Z,308.52
2022-08-03T16:21:59.000Z,308.52
2022-08-03T16:24:07.000Z,308.65
2022-08-03T16:25:41.000Z,308.59
2022-08-03T16:27:53.000Z,308.4
2022-08-03T16:29:31.000Z,308.46
2022-08-03T16:31:38.000Z,308.4
2022-08-03T16:33:15.000Z,308.09
2022-08-03T16:35:22.000Z,308.27
2022-08-03T16:36:48.000Z,308.34
2022-08-03T16:38:54.000Z,308.4
2022-08-03T16:40:21.000Z,308.34
2022-08-03T16:42:27.000Z,308.27
2022-08-03T16:45:18.000Z,308.34
2022-08-03T16:46:45.000Z,308.34
2022-08-03T16:48:51.000Z,308.27
2022-08-03T16:50:18.000Z,308.27
2022-08-03T16:52:24.000Z,308.21
2022-08-03T16:53:51.000Z,308.21
2022-08-03T16:56:12.000Z,308.02
2022-08-03T16:57:38.000Z,308.09
2022-08-03T17:00:04.000Z,308.02
2022-08-03T17:01:30.000Z,308.02
2022-08-03T17:03:42.000Z,307.9
2022-08-03T17:05:28.000Z,307.52
2022-08-03T17:07:51.000Z,307.65
2022-08-03T17:09:18.000Z,307.52
2022-08-03T17:11:24.000Z,307.52
2022-08-03T17:12:54.000Z,307.46
2022-08-03T17:15:01.000Z,307.71
2022-08-03T17:16:28.000Z,307.65
2022-08-03T17:18:34.000Z,307.52
2022-08-03T17:20:01.000Z,307.09
2022-08-03T17:22:13.000Z,307.15
2022-08-03T17:25:05.000Z,307.02
2022-08-03T17:26:32.000Z,306.96
2022-08-03T17:28:38.000Z,306.96
2022-08-03T17:30:16.000Z,307.21
2022-08-03T17:32:24.000Z,306.71
2022-08-03T17:33:51.000Z,306.59
2022-08-03T17:35:59.000Z,306.34
2022-08-03T17:37:25.000Z,306.27
2022-08-03T17:40:06.000Z,305.84
2022-08-03T17:41:33.000Z,305.71
2022-08-03T17:43:39.000Z,305.65
2022-08-03T17:45:42.000Z,305.46
2022-08-03T17:47:59.000Z,305.27
2022-08-03T17:49:25.000Z,305.21
2022-08-03T17:51:31.000Z,304.9
2022-08-03T17:52:58.000Z,304.9
2022-08-03T17:55:05.000Z,304.96
2022-08-03T17:57:23.000Z,304.71
2022-08-03T17:59:31.000Z,304.46
2022-08-03T18:01:17.000Z,304.4
2022-08-03T18:04:14.000Z,304.15
2022-08-03T18:07:05.000Z,303.9
2022-08-03T18:08:36.000Z,303.84
2022-08-03T18:10:45.000Z,303.65
2022-08-03T18:12:14.000Z,303.59
2022-08-03T18:14:20.000Z,303.59
2022-08-03T18:15:48.000Z,303.46
2022-08-03T18:17:54.000Z,303.34
2022-08-03T18:19:27.000Z,303.27
2022-08-03T18:22:13.000Z,303.02
2022-08-03T18:23:39.000Z,302.96
2022-08-03T18:25:45.000Z,302.65
2022-08-03T18:27:22.000Z,302.52
2022-08-03T18:29:47.000Z,302.15
2022-08-03T18:31:13.000Z,302.02
2022-08-03T18:34:05.000Z,301.77
2022-08-03T18:35:56.000Z,301.65
2022-08-03T18:38:02.000Z,301.52
2022-08-03T18:39:34.000Z,301.4
2022-08-03T19:16:25.000Z,299.52
2022-08-03T19:17:52.000Z,299.4
2022-08-03T19:19:58.000Z,299.15
2022-08-03T19:21:26.000Z,299.09
2022-08-03T19:23:32.000Z,298.9
2022-08-03T19:24:58.000Z,298.77
2022-08-03T19:27:05.000Z,298.71
2022-08-03T19:28:35.000Z,298.65
2022-08-03T19:30:41.000Z,298.52
2022-08-03T19:32:18.000Z,298.4
2022-08-03T19:34:24.000Z,298.52
2022-08-03T19:35:51.000Z,298.27
2022-08-03T19:38:01.000Z,298.21
2022-08-03T19:39:27.000Z,298.09
2022-08-03T19:41:37.000Z,298.02
2022-08-03T19:43:07.000Z,298.02
2022-08-03T19:45:13.000Z,297.96
2022-08-03T19:46:41.000Z,297.9
2022-08-03T19:48:48.000Z,297.84
2022-08-03T19:50:14.000Z,297.84
2022-08-03T19:52:20.000Z,297.65
2022-08-03T19:55:20.000Z,297.77
2022-08-03T19:56:47.000Z,297.77
2022-08-03T19:58:53.000Z,297.4
2022-08-03T20:00:19.000Z,297.27
2022-08-03T20:02:31.000Z,297.15
2022-08-03T20:03:57.000Z,297.15
2022-08-03T20:06:03.000Z,297.02
2022-08-03T20:07:31.000Z,296.96
2022-08-03T20:09:37.000Z,296.84
2022-08-03T20:11:09.000Z,296.84
2022-08-03T20:13:15.000Z,296.84
2022-08-03T20:14:43.000Z,296.9
2022-08-03T20:16:54.000Z,296.77
2022-08-03T20:18:20.000Z,296.71
2022-08-03T20:20:27.000Z,296.59
2022-08-03T20:21:54.000Z,296.59
2022-08-03T20:24:01.000Z,296.4
2022-08-03T20:25:49.000Z,296.34
2022-08-03T20:28:03.000Z,296.21
2022-08-03T20:29:38.000Z,296.15
2022-08-03T21:10:23.000Z,294.9
2022-08-03T21:11:53.000Z,294.9
2022-08-03T21:14:04.000Z,294.9
2022-08-03T21:15:30.000Z,294.84
2022-08-03T21:18:18.000Z,294.77
2022-08-03T21:19:45.000Z,294.71
2022-08-03T21:21:56.000Z,294.65
2022-08-03T21:23:23.000Z,294.52
2022-08-03T21:25:52.000Z,294.46
2022-08-03T21:27:19.000Z,294.52
2022-08-03T21:29:26.000Z,294.4
2022-08-03T21:30:52.000Z,294.21
2022-08-03T21:32:59.000Z,294.21
2022-08-03T21:34:25.000Z,294.15
2022-08-03T21:36:32.000Z,294.09
2022-08-03T21:37:58.000Z,294.02
2022-08-03T21:40:05.000Z,294.02
2022-08-03T21:41:31.000Z,293.9
2022-08-03T21:43:38.000Z,293.84
2022-08-03T21:45:04.000Z,293.84
2022-08-03T21:47:11.000Z,293.71
2022-08-03T21:50:02.000Z,293.46
2022-08-03T21:51:34.000Z,293.4
2022-08-03T21:53:40.000Z,293.4
2022-08-03T21:55:29.000Z,293.4
2022-08-03T21:57:35.000Z,293.46
2022-08-03T21:59:02.000Z,293.59
2022-08-03T22:01:09.000Z,293.65
2022-08-03T22:02:35.000Z,293.71
2022-08-03T22:04:46.000Z,293.71
2022-08-03T22:06:21.000Z,293.71
2022-08-03T22:08:31.000Z,293.71
2022-08-03T22:09:58.000Z,293.59
2022-08-03T22:12:05.000Z,293.4
2022-08-03T22:13:31.000Z,293.34
2022-08-03T22:15:48.000Z,293.4
2022-08-03T22:17:14.000Z,293.4
2022-08-03T22:20:00.000Z,293.34
2022-08-03T22:21:26.000Z,293.27
2022-08-03T22:23:40.000Z,293.34
2022-08-03T22:25:07.000Z,293.34
2022-08-03T22:27:13.000Z,293.27
2022-08-03T22:30:04.000Z,293.15
2022-08-03T22:31:31.000Z,293.21
2022-08-03T22:34:03.000Z,293.15
2022-08-03T22:35:29.000Z,293.15
2022-08-03T22:37:48.000Z,293.09
2022-08-03T22:39:17.000Z,293.09
2022-08-03T22:41:30.000Z,292.96
2022-08-03T22:42:56.000Z,292.84
2022-08-03T22:45:03.000Z,292.84
2022-08-03T22:46:29.000Z,292.84
2022-08-03T22:48:35.000Z,292.77
2022-08-03T22:50:05.000Z,292.84
2022-08-03T22:52:37.000Z,292.84
2022-08-03T22:54:04.000Z,292.84
2022-08-03T22:56:10.000Z,292.59
2022-08-03T22:57:37.000Z,292.4
2022-08-03T22:59:43.000Z,292.34
2022-08-03T23:01:09.000Z,292.4
2022-08-03T23:03:15.000Z,292.27
2022-08-03T23:04:42.000Z,292.15
2022-08-03T23:06:48.000Z,292.15
2022-08-03T23:09:39.000Z,292.34
2022-08-03T23:11:06.000Z,292.34
2022-08-03T23:13:12.000Z,292.27
2022-08-03T23:14:39.000Z,292.27
2022-08-03T23:16:45.000Z,292.27
2022-08-03T23:18:11.000Z,292.27
2022-08-03T23:20:18.000Z,292.21
2022-08-03T23:21:51.000Z,292.09
2022-08-03T23:24:07.000Z,292.15
2022-08-03T23:25:54.000Z,292.02
2022-08-03T23:28:00.000Z,291.96
2022-08-03T23:29:30.000Z,292.09
2022-08-03T23:31:36.000Z,292.09
2022-08-03T23:33:07.000Z,292.02
2022-08-03T23:35:13.000Z,292.02
2022-08-03T23:36:40.000Z,291.96
2022-08-03T23:38:46.000Z,291.96
2022-08-03T23:40:12.000Z,291.9
2022-08-03T23:42:19.000Z,291.9
2022-08-03T23:43:45.000Z,291.96
2022-08-03T23:45:58.000Z,292.02
2022-08-03T23:48:49.000Z,291.96
2022-08-03T23:50:18.000Z,291.9
2022-08-03T23:52:24.000Z,291.9
2022-08-03T23:53:50.000Z,291.84
2022-08-03T23:55:57.000Z,291.77
2022-08-03T23:57:23.000Z,291.77
2022-08-03T23:59:29.000Z,291.71
